createdAt,value
2022-08-09T00:00:06.329Z,4.03
2022-08-09T00:02:10.042Z,4.20
2022-08-09T00:04:33.856Z,3.75
2022-08-09T00:06:33.655Z,4.15
2022-08-09T00:08:37.329Z,4.00
2022-08-09T00:10:40.637Z,4.38
2022-08-09T00:12:42.450Z,4.38
2022-08-09T00:14:47.568Z,4.55
2022-08-09T00:16:51.181Z,4.05
2022-08-09T00:18:55.110Z,4.38
2022-08-09T00:20:56.912Z,4.80
2022-08-09T00:25:23.329Z,4.18
2022-08-09T00:27:36.229Z,4.30
2022-08-09T00:30:23.344Z,4.65
2022-08-09T00:32:06.746Z,4.30
2022-08-09T00:34:08.661Z,4.20
2022-08-09T00:36:12.770Z,4.45
2022-08-09T00:38:16.135Z,4.18
2022-08-09T00:40:23.311Z,4.10
2022-08-09T00:44:16.565Z,3.88
2022-08-09T00:44:55.559Z,4.38
2022-08-09T00:47:04.552Z,4.22
2022-08-09T00:49:07.222Z,4.22
2022-08-09T00:51:10.260Z,4.22
2022-08-09T00:53:13.941Z,4.57
2022-08-09T00:56:03.127Z,4.25
2022-08-09T00:57:39.135Z,4.25
2022-08-09T00:59:46.921Z,4.78
2022-08-09T01:01:55.287Z,4.35
2022-08-09T01:04:11.710Z,4.45
2022-08-09T01:06:18.635Z,4.50
2022-08-09T01:08:32.913Z,4.20
2022-08-09T01:10:54.336Z,4.13
2022-08-09T01:13:25.149Z,4.28
2022-08-09T01:15:51.645Z,4.70
2022-08-09T01:18:04.951Z,4.82
2022-08-09T01:20:41.169Z,4.38
2022-08-09T01:22:52.125Z,4.38
2022-08-09T01:25:23.917Z,4.70
2022-08-09T01:27:29.253Z,5.03
2022-08-09T01:29:55.528Z,4.47
2022-08-09T01:32:30.030Z,5.25
2022-08-09T01:34:25.911Z,4.70
2022-08-09T01:36:30.322Z,4.93
2022-08-09T01:38:36.659Z,4.72
2022-08-09T01:41:09.119Z,4.72
2022-08-09T01:43:12.211Z,4.78
2022-08-09T01:45:15.240Z,5.10
2022-08-09T01:47:18.861Z,4.22
2022-08-09T01:49:24.264Z,4.50
2022-08-09T01:51:32.567Z,4.68
2022-08-09T01:53:41.444Z,4.88
2022-08-09T01:55:45.488Z,4.72
2022-08-09T01:57:53.097Z,4.78
2022-08-09T02:00:08.814Z,4.55
2022-08-09T02:02:11.878Z,4.45
2022-08-09T02:04:16.666Z,5.03
2022-08-09T02:06:45.520Z,4.60
2022-08-09T02:08:59.129Z,5.32
2022-08-09T02:11:16.864Z,4.65
2022-08-09T02:13:26.086Z,4.65
2022-08-09T02:15:49.337Z,4.75
2022-08-09T02:18:00.873Z,4.75
2022-08-09T02:20:12.700Z,4.50
2022-08-09T02:22:45.556Z,4.43
2022-08-09T02:24:52.572Z,4.43
2022-08-09T02:26:59.560Z,5.07
2022-08-09T02:29:31.294Z,5.05
2022-08-09T02:31:39.311Z,4.70
2022-08-09T02:34:07.212Z,4.22
2022-08-09T02:36:16.903Z,4.57
2022-08-09T02:38:28.645Z,4.25
2022-08-09T02:40:32.680Z,4.80
2022-08-09T02:42:39.458Z,4.57
2022-08-09T02:44:44.731Z,4.53
2022-08-09T02:46:52.239Z,4.40
2022-08-09T02:48:57.146Z,4.88
2022-08-09T02:51:02.439Z,4.93
2022-08-09T02:53:10.282Z,4.75
2022-08-09T02:55:46.182Z,4.97
2022-08-09T02:58:00.504Z,5.10
2022-08-09T03:00:25.667Z,4.32
2022-08-09T03:02:32.659Z,5.18
2022-08-09T03:04:37.774Z,5.07
2022-08-09T03:06:41.372Z,5.03
2022-08-09T03:08:48.231Z,4.68
2022-08-09T03:10:51.827Z,5.63
2022-08-09T03:12:56.666Z,4.30
2022-08-09T03:15:00.207Z,5.05
2022-08-09T03:17:05.762Z,5.03
2022-08-09T03:19:14.322Z,5.05
2022-08-09T03:21:36.352Z,4.72
2022-08-09T03:23:39.547Z,4.50
2022-08-09T03:26:02.176Z,4.70
2022-08-09T03:28:11.413Z,4.82
2022-08-09T03:30:30.254Z,4.72
2022-08-09T03:32:37.541Z,4.60
2022-08-09T03:34:40.556Z,4.60
2022-08-09T03:36:58.149Z,5.00
2022-08-09T03:39:00.404Z,4.85
2022-08-09T03:41:02.808Z,5.10
2022-08-09T03:43:06.061Z,4.57
2022-08-09T03:45:08.553Z,5.25
2022-08-09T03:47:10.669Z,4.57
2022-08-09T03:49:17.402Z,5.03
2022-08-09T03:51:54.082Z,4.93
2022-08-09T03:53:49.089Z,4.95
2022-08-09T03:55:51.294Z,5.13
2022-08-09T03:58:09.814Z,5.20
2022-08-09T04:00:17.015Z,4.57
2022-08-09T04:02:26.512Z,4.85
2022-08-09T04:04:32.629Z,5.03
2022-08-09T04:06:40.513Z,4.47
2022-08-09T04:08:46.708Z,4.95
2022-08-09T04:10:49.794Z,5.07
2022-08-09T04:12:53.415Z,5.00
2022-08-09T04:15:02.042Z,4.55
2022-08-09T04:17:13.080Z,5.22
2022-08-09T04:19:15.890Z,5.20
2022-08-09T04:21:36.373Z,4.90
2022-08-09T04:23:42.054Z,5.05
2022-08-09T04:25:56.378Z,4.97
2022-08-09T04:28:02.469Z,4.88
2022-08-09T04:30:06.092Z,5.10
2022-08-09T04:32:08.074Z,5.18
2022-08-09T04:34:10.683Z,4.93
2022-08-09T04:36:14.514Z,4.95
2022-08-09T04:38:21.293Z,4.90
2022-08-09T04:40:35.800Z,4.82
2022-08-09T04:42:38.204Z,5.10
2022-08-09T04:44:40.109Z,4.70
2022-08-09T04:46:58.495Z,4.88
2022-08-09T04:49:02.284Z,5.07
2022-08-09T04:51:04.073Z,5.40
2022-08-09T04:53:11.590Z,5.30
2022-08-09T04:55:15.785Z,5.18
2022-08-09T04:57:23.859Z,5.40
2022-08-09T04:59:26.305Z,5.47
2022-08-09T05:01:32.641Z,5.45
2022-08-09T05:03:42.946Z,5.25
2022-08-09T05:05:52.759Z,5.90
2022-08-09T09:23:57.272Z,1.65
2022-08-09T09:26:39.567Z,1.45
2022-08-09T09:29:02.925Z,1.48
2022-08-09T09:32:04.329Z,1.65
2022-08-09T09:33:45.088Z,1.70
2022-08-09T09:36:02.105Z,2.15
2022-08-09T09:38:04.867Z,1.60
2022-08-09T09:40:07.567Z,1.90
2022-08-09T09:42:23.308Z,1.80
2022-08-09T09:44:31.600Z,1.50
2022-08-09T09:46:42.068Z,1.75
2022-08-09T09:48:57.307Z,1.83
2022-08-09T09:50:59.138Z,1.50
2022-08-09T09:53:01.037Z,1.35
2022-08-09T09:55:24.004Z,1.60
2022-08-09T09:58:02.278Z,1.55
2022-08-09T09:59:54.347Z,1.60
2022-08-09T10:02:00.959Z,1.50
2022-08-09T10:04:08.915Z,1.25
2022-08-09T10:06:13.000Z,1.50
2022-08-09T10:08:27.594Z,1.30
2022-08-09T10:10:31.689Z,1.40
2022-08-09T10:12:43.950Z,1.13
2022-08-09T10:15:05.034Z,1.55
2022-08-09T10:19:36.150Z,1.50
2022-08-09T10:21:48.791Z,1.50
2022-08-09T10:23:52.599Z,1.70
2022-08-09T10:26:07.111Z,1.40
2022-08-09T10:28:12.701Z,1.80
2022-08-09T10:32:48.491Z,1.52
2022-08-09T10:34:51.740Z,1.70
2022-08-09T10:36:57.062Z,1.60
2022-08-09T10:39:00.050Z,1.83
2022-08-09T10:41:03.270Z,1.95
2022-08-09T10:43:08.224Z,1.65
2022-08-09T10:45:16.600Z,1.58
2022-08-09T10:48:19.315Z,1.60
2022-08-09T10:50:30.749Z,1.65
2022-08-09T10:53:00.680Z,2.00
2022-08-09T10:55:22.751Z,1.70
2022-08-09T10:57:36.410Z,1.52
2022-08-09T10:59:43.111Z,1.98
2022-08-09T11:03:16.113Z,2.05
2022-08-09T11:04:27.874Z,1.63
2022-08-09T11:06:33.293Z,1.92
2022-08-09T11:08:47.371Z,1.85
2022-08-09T11:10:53.391Z,1.90
2022-08-09T11:13:21.711Z,2.17
2022-08-09T11:16:04.339Z,1.50
2022-08-09T11:18:03.646Z,1.80
2022-08-09T11:20:19.872Z,1.55
2022-08-09T11:22:45.227Z,1.65
2022-08-09T11:25:08.781Z,1.90
2022-08-09T11:28:04.750Z,1.40
2022-08-09T11:30:05.906Z,1.63
2022-08-09T11:32:39.643Z,1.95
2022-08-09T11:34:48.901Z,1.90
2022-08-09T11:36:55.819Z,1.70
2022-08-09T11:39:02.937Z,1.45
2022-08-09T11:41:37.465Z,2.00
2022-08-09T11:43:43.128Z,1.60
2022-08-09T11:45:57.583Z,1.92
2022-08-09T11:48:06.586Z,2.08
2022-08-09T11:50:55.403Z,1.83
2022-08-09T11:53:44.119Z,2.00
2022-08-09T11:55:52.872Z,1.98
2022-08-09T11:58:02.346Z,1.70
2022-08-09T12:00:16.493Z,1.60
2022-08-09T12:02:51.059Z,1.92
2022-08-09T12:04:41.085Z,1.73
2022-08-09T12:06:55.698Z,1.40
2022-08-09T12:08:57.860Z,1.52
2022-08-09T12:11:03.938Z,1.20
2022-08-09T12:14:07.896Z,1.70
2022-08-09T12:15:48.783Z,1.65
2022-08-09T12:17:52.244Z,1.70
2022-08-09T12:19:59.385Z,1.23
2022-08-09T12:22:05.282Z,1.40
2022-08-09T12:24:10.207Z,1.65
2022-08-09T12:26:12.803Z,1.42
2022-08-09T12:29:10.281Z,1.77
2022-08-09T12:30:45.685Z,1.38
2022-08-09T12:33:01.427Z,1.60
2022-08-09T12:35:10.928Z,1.52
2022-08-09T12:37:31.540Z,1.52
2022-08-09T12:39:34.323Z,1.60
2022-08-09T12:41:40.508Z,1.60
2022-08-09T12:44:06.590Z,1.23
2022-08-09T12:46:05.063Z,2.00
2022-08-09T12:48:20.025Z,1.25
2022-08-09T12:50:34.412Z,1.40
2022-08-09T12:53:02.650Z,1.42
2022-08-09T12:56:13.880Z,1.50
2022-08-09T12:57:46.493Z,1.23
2022-08-09T13:00:02.800Z,1.42
2022-08-09T13:02:09.505Z,1.55
2022-08-09T13:04:38.274Z,1.20
2022-08-09T13:06:39.153Z,1.00
2022-08-09T13:08:58.585Z,1.13
2022-08-09T13:11:13.093Z,1.55
2022-08-09T13:13:38.079Z,1.10
2022-08-09T13:15:57.619Z,1.27
2022-08-09T13:18:09.487Z,1.30
2022-08-09T13:20:18.684Z,1.50
2022-08-09T13:22:37.417Z,1.10
2022-08-09T13:24:59.083Z,1.00
2022-08-09T13:27:23.317Z,1.02
2022-08-09T13:30:03.081Z,1.23
2022-08-09T13:32:17.220Z,1.38
2022-08-09T13:34:27.492Z,1.27
2022-08-09T13:36:40.848Z,1.05
2022-08-09T13:38:57.994Z,0.95
2022-08-09T13:41:56.659Z,1.40
2022-08-09T13:43:23.570Z,1.25
2022-08-09T13:46:44.374Z,1.10
2022-08-09T13:47:59.680Z,1.20
2022-08-09T13:50:29.999Z,1.30
2022-08-09T13:52:34.526Z,1.15
2022-08-09T13:54:42.916Z,1.27
2022-08-09T13:56:50.757Z,1.27
2022-08-09T13:58:53.368Z,1.15
2022-08-09T14:00:55.148Z,1.20
2022-08-09T14:03:03.466Z,1.20
2022-08-09T14:05:56.420Z,0.95
2022-08-09T14:07:42.121Z,1.10
2022-08-09T14:09:44.192Z,1.20
2022-08-09T14:11:47.744Z,1.40
2022-08-09T14:14:24.620Z,1.63
2022-08-09T14:16:17.234Z,1.90
2022-08-09T14:18:29.841Z,1.20
2022-08-09T14:20:34.260Z,1.00
2022-08-09T14:22:36.053Z,1.50
2022-08-09T14:24:53.360Z,1.40
2022-08-09T14:26:55.981Z,1.08
2022-08-09T14:29:07.729Z,1.40
2022-08-09T14:31:36.425Z,1.10
2022-08-09T14:33:52.085Z,1.00
2022-08-09T14:35:56.642Z,1.50
2022-08-09T14:38:01.714Z,1.40
2022-08-09T14:40:05.444Z,1.15
2022-08-09T14:42:07.479Z,1.08
2022-08-09T14:44:11.417Z,0.90
2022-08-09T14:46:57.104Z,1.10
2022-08-09T14:48:36.587Z,1.27
2022-08-09T14:52:40.930Z,1.30
2022-08-09T14:54:42.736Z,1.13
2022-08-09T14:56:58.100Z,1.02
2022-08-09T14:59:00.728Z,1.20
2022-08-09T15:01:02.527Z,1.10
2022-08-09T15:03:10.612Z,0.90
2022-08-09T15:05:12.551Z,1.20
2022-08-09T15:07:17.817Z,0.93
2022-08-09T15:10:03.460Z,1.00
2022-08-09T15:11:48.256Z,1.00
2022-08-09T15:13:59.827Z,1.10
2022-08-09T15:16:07.980Z,1.20
2022-08-09T15:18:14.339Z,1.27
2022-08-09T15:21:53.441Z,1.33
2022-08-09T15:22:46.666Z,1.00
2022-08-09T15:24:49.145Z,1.00
2022-08-09T15:26:53.257Z,1.67
2022-08-09T15:28:55.480Z,1.05
2022-08-09T15:31:09.976Z,0.90
2022-08-09T15:33:28.111Z,0.80
2022-08-09T15:35:43.377Z,1.10
2022-08-09T15:37:56.699Z,1.40
2022-08-09T15:40:14.700Z,1.08
2022-08-09T15:42:18.799Z,1.60
2022-08-09T15:44:23.148Z,0.98
2022-08-09T15:46:34.291Z,1.20
2022-08-09T15:48:37.709Z,1.25
2022-08-09T15:50:43.763Z,1.13
2022-08-09T15:52:55.093Z,1.10
2022-08-09T15:55:12.074Z,1.55
2022-08-09T15:57:14.909Z,1.00
2022-08-09T15:59:21.136Z,1.00
2022-08-09T16:01:22.986Z,0.80
2022-08-09T16:03:29.759Z,1.00
2022-08-09T16:05:53.280Z,0.90
2022-08-09T16:07:57.464Z,0.98
2022-08-09T16:10:05.072Z,1.00
2022-08-09T16:12:07.692Z,0.90
2022-08-09T16:14:13.682Z,0.80
2022-08-09T16:16:18.337Z,0.95
2022-08-09T16:18:20.739Z,2.95
2022-08-09T16:20:27.638Z,1.27
2022-08-09T16:22:34.043Z,2.75
2022-08-09T16:24:37.193Z,1.10
2022-08-09T16:26:48.809Z,1.08
2022-08-09T16:28:51.561Z,1.00
2022-08-09T16:30:59.363Z,1.00
2022-08-09T16:33:10.273Z,1.27
2022-08-09T16:35:12.130Z,12.25
2022-08-09T16:37:54.683Z,3.67
2022-08-09T16:40:05.515Z,0.98
2022-08-09T16:42:07.936Z,1.15
2022-08-09T16:44:10.854Z,1.00
2022-08-09T16:46:14.551Z,1.10
2022-08-09T16:48:50.494Z,0.77
2022-08-09T16:50:39.076Z,1.10
2022-08-09T16:54:44.951Z,1.00
2022-08-09T16:56:49.489Z,0.98
2022-08-09T16:58:52.055Z,1.05
2022-08-09T17:00:54.817Z,0.90
2022-08-09T17:02:57.313Z,1.00
2022-08-09T17:04:59.896Z,0.95
2022-08-09T17:08:41.772Z,0.93
2022-08-09T17:09:44.435Z,0.87
2022-08-09T17:11:51.427Z,0.90
2022-08-09T17:14:01.843Z,0.93
2022-08-09T17:16:04.716Z,1.00
2022-08-09T17:20:32.696Z,0.90
2022-08-09T17:22:36.093Z,0.80
2022-08-09T17:24:47.751Z,0.90
2022-08-09T17:26:56.645Z,1.00
2022-08-09T17:29:00.122Z,1.02
2022-08-09T17:31:01.972Z,1.00
2022-08-09T17:33:05.494Z,1.00
2022-08-09T17:35:24.218Z,1.02
2022-08-09T17:37:26.109Z,1.42
2022-08-09T17:39:53.057Z,0.98
2022-08-09T17:41:53.872Z,3.33
2022-08-09T17:44:38.207Z,10.98
2022-08-09T17:46:17.610Z,1.40
2022-08-09T17:48:19.629Z,1.30
2022-08-09T17:50:37.209Z,1.13
2022-08-09T17:52:39.681Z,1.08
2022-08-09T17:54:41.493Z,1.10
2022-08-09T17:56:45.036Z,0.80
2022-08-09T17:58:47.126Z,1.20
2022-08-09T18:00:49.116Z,1.20
2022-08-09T18:02:58.612Z,1.00
2022-08-09T18:05:00.681Z,1.33
2022-08-09T18:07:07.451Z,1.40
2022-08-09T18:09:09.569Z,1.20
2022-08-09T18:13:39.591Z,1.30
2022-08-09T18:16:05.678Z,1.30
2022-08-09T18:18:07.841Z,1.00
2022-08-09T18:20:57.017Z,1.33
2022-08-09T18:22:34.028Z,1.20
2022-08-09T18:24:36.180Z,1.25
2022-08-09T18:26:46.917Z,1.45
2022-08-09T18:30:42.991Z,1.10
2022-08-09T18:31:12.125Z,1.45
2022-08-09T18:33:15.286Z,1.40
2022-08-09T18:35:17.220Z,1.20
2022-08-09T18:37:47.813Z,1.30
2022-08-09T18:39:45.955Z,1.48
2022-08-09T18:41:52.613Z,1.30
2022-08-09T18:43:55.683Z,1.80
2022-08-09T18:46:51.019Z,1.20
2022-08-09T18:48:19.403Z,1.20
2022-08-09T18:50:22.339Z,1.10
2022-08-09T18:52:34.465Z,1.30
2022-08-09T18:54:37.059Z,1.33
2022-08-09T18:56:39.077Z,1.20
2022-08-09T18:58:42.575Z,1.30
2022-08-09T19:00:47.194Z,1.13
2022-08-09T19:02:54.248Z,1.60
2022-08-09T19:05:14.475Z,1.60
2022-08-09T19:07:18.943Z,1.77
2022-08-09T19:10:12.728Z,2.05
2022-08-09T19:11:44.833Z,1.50
2022-08-09T19:13:51.545Z,1.63
2022-08-09T19:15:55.541Z,1.50
2022-08-09T19:17:59.035Z,1.75
2022-08-09T19:20:02.206Z,1.50
2022-08-09T19:22:06.492Z,1.60
2022-08-09T19:24:36.524Z,1.70
2022-08-09T19:26:35.162Z,1.80
2022-08-09T19:28:38.268Z,1.60
2022-08-09T19:30:44.950Z,1.95
2022-08-09T19:32:49.288Z,1.80
2022-08-09T19:34:57.353Z,1.70
2022-08-09T19:36:59.303Z,1.65
2022-08-09T19:39:05.378Z,1.30
2022-08-09T19:41:07.884Z,1.80
2022-08-09T19:43:10.318Z,1.60
2022-08-09T19:45:18.807Z,1.85
2022-08-09T19:47:23.682Z,1.60
2022-08-09T19:50:05.162Z,1.63
2022-08-09T19:51:48.043Z,1.40
2022-08-09T19:53:57.553Z,1.83
2022-08-09T19:56:05.651Z,1.60
2022-08-09T19:58:15.922Z,1.70
2022-08-09T20:00:18.803Z,1.80
2022-08-09T20:04:23.809Z,1.75
2022-08-09T20:04:47.555Z,1.75
2022-08-09T20:06:55.158Z,1.60
2022-08-09T20:08:59.342Z,1.92
2022-08-09T20:11:04.004Z,1.65
2022-08-09T20:13:08.202Z,1.55
2022-08-09T20:16:34.502Z,1.98
2022-08-09T20:17:41.493Z,1.85
2022-08-09T20:19:54.341Z,1.77
2022-08-09T20:22:00.019Z,1.67
2022-08-09T20:24:03.175Z,1.60
2022-08-09T20:28:09.017Z,1.85
2022-08-09T20:30:17.983Z,1.50
2022-08-09T20:32:40.856Z,1.63
2022-08-09T20:34:45.556Z,1.90
2022-08-09T20:36:48.365Z,1.80
2022-08-09T20:39:28.250Z,2.05
2022-08-09T20:41:12.443Z,1.58
2022-08-09T20:43:24.408Z,1.50
2022-08-09T20:46:00.947Z,2.00
2022-08-09T20:47:49.664Z,1.90
2022-08-09T20:49:52.303Z,2.03
2022-08-09T20:51:54.372Z,1.75
2022-08-09T20:53:56.225Z,1.80
2022-08-09T20:56:02.370Z,1.60
2022-08-09T20:58:08.144Z,1.65
2022-08-09T21:00:31.141Z,2.25
2022-08-09T21:02:34.427Z,2.03
2022-08-09T21:05:51.412Z,1.85
2022-08-09T21:06:58.895Z,1.83
2022-08-09T21:09:14.325Z,1.70
2022-08-09T21:13:59.904Z,2.10
2022-08-09T21:16:02.263Z,1.75
2022-08-09T21:18:21.861Z,1.77
2022-08-09T21:20:29.835Z,2.30
2022-08-09T21:22:38.659Z,2.00
2022-08-09T21:25:00.201Z,2.30
2022-08-09T21:27:50.433Z,1.80
2022-08-09T21:29:24.121Z,1.95
2022-08-09T21:31:48.865Z,1.75
2022-08-09T21:33:52.822Z,1.90
2022-08-09T21:35:55.011Z,2.05
2022-08-09T21:38:01.281Z,2.00
2022-08-09T21:40:04.700Z,2.15
2022-08-09T21:42:13.270Z,2.08
2022-08-09T21:44:32.970Z,2.00
2022-08-09T21:46:37.110Z,2.30
2022-08-09T21:48:39.779Z,2.42
2022-08-09T21:50:49.771Z,2.17
2022-08-09T21:52:54.956Z,1.98
2022-08-09T21:55:03.162Z,2.28
2022-08-09T21:57:06.506Z,2.10
2022-08-09T21:59:28.588Z,2.10
2022-08-09T22:02:01.246Z,2.10
2022-08-09T22:04:03.735Z,2.22
2022-08-09T22:06:05.633Z,1.97
2022-08-09T22:08:12.835Z,2.00
2022-08-09T22:10:15.809Z,2.30
2022-08-09T22:12:31.409Z,2.50
2022-08-09T22:14:33.903Z,2.00
2022-08-09T22:16:37.433Z,2.40
2022-08-09T22:18:52.905Z,2.05
2022-08-09T22:20:56.426Z,1.90
2022-08-09T22:22:58.539Z,2.03
2022-08-09T22:26:05.576Z,2.10
2022-08-09T22:27:22.867Z,2.53
2022-08-09T22:29:32.270Z,2.10
2022-08-09T22:31:56.796Z,2.20
2022-08-09T22:33:59.031Z,2.20
2022-08-09T22:36:03.702Z,2.70
2022-08-09T22:38:07.066Z,2.45
2022-08-09T22:40:10.889Z,2.50
2022-08-09T22:42:23.648Z,2.30
2022-08-09T22:44:25.931Z,2.45
2022-08-09T22:48:12.379Z,2.40
2022-08-09T22:49:01.780Z,2.50
2022-08-09T22:51:17.863Z,2.80
2022-08-09T22:53:26.070Z,2.63
2022-08-09T22:56:31.534Z,2.65
2022-08-09T22:58:07.878Z,3.10
2022-08-09T23:00:12.058Z,2.83
2022-08-09T23:02:15.186Z,2.85
2022-08-09T23:04:17.869Z,2.78
2022-08-09T23:06:34.734Z,3.03
2022-08-09T23:08:46.984Z,2.90
2022-08-09T23:10:48.815Z,3.00
2022-08-09T23:12:50.739Z,2.83
2022-08-09T23:14:54.098Z,3.00
2022-08-09T23:16:56.018Z,2.65
2022-08-09T23:18:57.858Z,2.90
2022-08-09T23:20:59.732Z,3.15
2022-08-09T23:23:01.512Z,3.33
2022-08-09T23:25:05.025Z,3.38
2022-08-09T23:27:06.796Z,3.00
2022-08-09T23:29:11.660Z,3.00
2022-08-09T23:31:13.478Z,2.97
2022-08-09T23:33:15.353Z,3.08
2022-08-09T23:35:17.179Z,3.07
2022-08-09T23:37:21.326Z,3.15
2022-08-09T23:39:24.608Z,3.10
2022-08-09T23:41:28.541Z,2.90
2022-08-09T23:43:30.981Z,3.40
2022-08-09T23:45:37.124Z,3.65
2022-08-09T23:47:40.389Z,3.17
2022-08-09T23:49:42.211Z,3.33
2022-08-09T23:51:43.976Z,3.63
2022-08-09T23:53:45.823Z,3.58
2022-08-09T23:55:54.278Z,3.35
2022-08-09T23:58:07.244Z,3.00
